Flight Track Log - Related Links

Times and Time Zones

All times are in EDT time to prevent confusion due to time zone crossing. See the RAX1022 flight status page for this flight to view local times or setup timezone preferences in your user account.

Time Position Orientation Groundspeed Altitude Reporting Facility
EDT Latitude Longitude Course Direction KTS MPH feet Rate Location/Type
Wed 11:13:39 PM 42.6675 -83.4042 270° West 111 128 1,600  Level Cleveland Center
Wed 11:14:28 PM 42.6661 -83.3731 93° East 107 123 2,400 1,049 Climbing Cleveland Center
Wed 11:15:22 PM 42.6450 -83.3778 189° South 117 135 3,400 1,087 Climbing Cleveland Center
Wed 11:16:35 PM 42.6211 -83.4217 234° Southwest 121 139 4,700 716 Climbing Cleveland Center
Wed 11:17:36 PM 42.6053 -83.4692 246° West 165 190 5,000 275 Climbing Cleveland Center
Wed 11:18:24 PM 42.6019 -83.5253 265° West 182 209 5,200 644 Climbing Cleveland Center
Wed 11:19:00 PM 42.6333 -83.7835 270° West  Level FlightAware Approximate
Wed 11:20:33 PM 42.5953 -83.6378 265° West 151 174 6,900  Level Chicago Center
Wed 11:21:34 PM 42.5925 -83.7061 267° West 151 174 7,700 541 Climbing Chicago Center
Wed 11:22:35 PM 42.5881 -83.7636 264° West 153 176 8,000 146 Climbing Chicago Center
Wed 11:23:37 PM 42.5850 -83.8322 267° West 176 203 8,000  Level Chicago Center
Wed 11:24:38 PM 42.5803 -83.9006 265° West 182 209 8,000  Level Chicago Center
Wed 11:25:39 PM 42.5742 -83.9714 263° West 188 216 8,000 49 Level Chicago Center
Wed 11:26:40 PM 42.5703 -84.0414 266° West 188 216 8,100 49 Climbing Chicago Center
Wed 11:27:41 PM 42.5650 -84.1117 264° West 188 216 8,100 -49 Level Chicago Center
Wed 11:28:42 PM 42.5622 -84.1822 267° West 188 216 8,000 -49 Descending Chicago Center
Wed 11:29:43 PM 42.5575 -84.2522 265° West 188 216 8,000 49 Level Chicago Center
Wed 11:30:45 PM 42.5533 -84.3233 265° West 189 217 8,100  Climbing Chicago Center
Wed 11:31:46 PM 42.5478 -84.3919 264° West 187 215 8,000  Descending Chicago Center
Wed 11:32:47 PM 42.5408 -84.4761 264° West 187 215 8,100  Climbing Chicago Center
Wed 11:33:48 PM 42.5344 -84.5456 263° West 187 215 8,000 -49 Descending Chicago Center
Wed 11:34:49 PM 42.5278 -84.6133 262° West 184 212 8,000  Level Chicago Center
Wed 11:35:50 PM 42.5233 -84.6836 265° West 186 214 8,000  Level Chicago Center
Wed 11:36:51 PM 42.5153 -84.7508 261° West 183 211 8,000  Level Chicago Center
Wed 11:37:52 PM 42.5114 -84.8203 266° West 185 213 8,000  Level Chicago Center
Wed 11:38:53 PM 42.5064 -84.8903 264° West 187 215 8,000 49 Level Chicago Center
Wed 11:39:54 PM 42.5008 -84.9597 264° West 186 214 8,100  Climbing Chicago Center
Wed 11:40:55 PM 42.4961 -85.0306 265° West 187 215 8,000 -49 Descending Chicago Center
Wed 11:41:56 PM 42.4900 -85.1006 263° West 188 216 8,000 49 Level Chicago Center
Wed 11:42:57 PM 42.4842 -85.1739 264° West 193 222 8,100 49 Climbing Chicago Center
Wed 11:43:58 PM 42.4806 -85.2447 266° West 192 221 8,100 -49 Level Chicago Center
Wed 11:44:59 PM 42.4761 -85.3172 265° West 192 221 8,000  Descending Chicago Center
Wed 11:46:00 PM 42.4711 -85.4006 265° West 187 215 8,100 50 Climbing Chicago Center
Wed 11:47:00 PM 42.4675 -85.4706 266° West 186 214 8,100 -50 Level Chicago Center
Wed 11:48:01 PM 42.4633 -85.5408 265° West 187 215 8,000 -49 Descending Chicago Center
Wed 11:49:03 PM 42.4567 -85.6097 263° West 186 214 8,000  Level Chicago Center
Wed 11:50:03 PM 42.4494 -85.6789 262° West 186 214 8,000 50 Level Chicago Center
Wed 11:51:04 PM 42.4406 -85.7475 260° West 185 213 8,100 49 Climbing Chicago Center
Wed 11:52:05 PM 42.4311 -85.8156 259° West 185 213 8,100  Level Chicago Center
Wed 11:53:06 PM 42.4214 -85.8828 259° West 183 211 8,100 -50 Level Chicago Center
Wed 11:54:06 PM 42.4153 -85.9528 263° West 185 213 8,000  Descending Chicago Center
Wed 11:55:07 PM 42.4089 -86.0219 263° West 185 213 8,100 49 Climbing Chicago Center
Wed 11:56:08 PM 42.4019 -86.0911 262° West 185 213 8,100 -49 Level Chicago Center
Wed 11:57:09 PM 42.3961 -86.1603 264° West 184 212 8,000 -49 Descending Chicago Center
Wed 11:58:10 PM 42.3903 -86.2297 264° West 186 214 8,000 50 Level Chicago Center
Wed 11:59:10 PM 42.3839 -86.3006 263° West 189 217 8,100 50 Climbing Chicago Center
Thu 12:00:11 AM 42.3778 -86.3681 263° West 184 212 8,100 -49 Level Chicago Center
Thu 12:01:12 AM 42.3714 -86.4358 263° West 182 209 8,000  Descending Chicago Center
Thu 12:02:12 AM 42.3647 -86.5033 262° West 180 207 8,100 50 Climbing Chicago Center
Thu 12:03:13 AM 42.3567 -86.5839 262° West 180 207 8,100  Level Chicago Center
Thu 12:04:14 AM 42.3506 -86.6503 263° West 180 207 8,100  Level Chicago Center
Thu 12:05:14 AM 42.3442 -86.7164 263° West 177 204 8,100  Level Chicago Center
Thu 12:06:15 AM 42.3392 -86.7842 264° West 180 207 8,100  Level Chicago Center
Thu 12:07:16 AM 42.3331 -86.8500 263° West 177 204 8,100 -99 Level Chicago Center
Thu 12:08:16 AM 42.3267 -86.9164 263° West 178 205 7,900 -397 Descending Chicago Center
Thu 12:09:17 AM 42.3200 -86.9875 263° West 187 215 7,300 -590 Descending Chicago Center
Thu 12:10:18 AM 42.3125 -87.0614 262° West 196 226 6,700 -694 Descending Chicago Center
Thu 12:11:18 AM 42.3072 -87.1364 265° West 197 227 5,900 -694 Descending Chicago Center
Thu 12:12:19 AM 42.3019 -87.2103 265° West 199 229 5,300 -492 Descending Chicago Center
Thu 12:13:20 AM 42.2958 -87.2842 264° West 200 230 4,900 -149 Descending Chicago Center
Thu 12:14:20 AM 42.2886 -87.3517 262° West 188 216 5,000 50 Climbing Chicago Center
Thu 12:15:21 AM 42.2819 -87.4178 262° West 183 211 5,000  Level Chicago Center
Thu 12:16:21 AM 42.2708 -87.4797 256° West 173 199 5,000  Level Chicago Center
Thu 12:17:22 AM 42.2628 -87.5433 260° West 176 203 5,000 -443 Level Chicago Center
Thu 12:18:23 AM 42.2544 -87.6264 262° West 185 213 4,100 -793 Descending Chicago Center
Thu 12:19:23 AM 42.2481 -87.6967 263° West 189 217 3,400 -645 Descending Chicago Center
Thu 12:20:24 AM 42.2422 -87.7656 263° West 187 215 2,800 -496 Descending Chicago Center
Thu 12:21:24 AM 42.2300 -87.8333 256° West 189 217 2,400 -248 Descending Chicago Center
Thu 12:22:25 AM 42.2081 -87.8889 242° Southwest 178 205 2,300 -347 Descending Chicago Center
Thu 12:23:25 AM 42.1897 -87.9292 238° Southwest 160 184 1,700 -545 Descending Chicago Center
Thu 12:24:26 AM 42.1581 -87.9267 177° South 135 155 1,200 -397 Descending Chicago Center
Thu 12:25:26 AM 42.1300 -87.9114 158° South 113 130 900 -198 Descending Chicago Center
Thu 12:26:27 AM 42.1033 -87.8975 159° South 110 127 800 -98 Descending Chicago Center

Login

Don't have an account? Register now (free) for customized features, flight alerts, and more!